sensor_id;sensor_type;location;lat;lon;timestamp;pressure;altitude;pressure_sealevel;temperature;humidity
7824;BME280;3957;48.61947800;9.05303100;2023-02-20T00:00:16;97156.56;;;5.58;100.00
7824;BME280;3957;48.61947800;9.05303100;2023-02-20T00:01:19;97146.28;;;5.45;100.00
7824;BME280;3957;48.61947800;9.05303100;2023-02-20T00:02:20;97150.44;;;5.48;100.00
7824;BME280;3957;48.61947800;9.05303100;2023-02-20T00:03:20;97149.31;;;5.51;100.00
7824;BME280;3957;48.61947800;9.05303100;2023-02-20T00:04:21;97148.69;;;5.67;100.00
7824;BME280;3957;48.61947800;9.05303100;2023-02-20T00:05:21;97148.53;;;5.40;100.00
7824;BME280;3957;48.61947800;9.05303100;2023-02-20T00:06:22;97159.13;;;5.40;100.00
7824;BME280;3957;48.61947800;9.05303100;2023-02-20T00:07:22;97157.00;;;5.44;100.00
7824;BME280;3957;48.61947800;9.05303100;2023-02-20T00:08:22;97152.09;;;5.49;100.00
7824;BME280;3957;48.61947800;9.05303100;2023-02-20T00:09:23;97165.09;;;5.52;100.00
7824;BME280;3957;48.61947800;9.05303100;2023-02-20T00:10:23;97160.88;;;5.59;100.00
7824;BME280;3957;48.61947800;9.05303100;2023-02-20T00:11:24;97164.78;;;5.65;100.00
7824;BME280;3957;48.61947800;9.05303100;2023-02-20T00:12:24;97164.94;;;5.64;100.00
7824;BME280;3957;48.61947800;9.05303100;2023-02-20T00:13:24;97157.22;;;5.60;100.00
7824;BME280;3957;48.61947800;9.05303100;2023-02-20T00:14:25;97159.47;;;5.65;100.00
7824;BME280;3957;48.61947800;9.05303100;2023-02-20T00:15:25;97162.22;;;5.73;100.00
7824;BME280;3957;48.61947800;9.05303100;2023-02-20T00:16:25;97161.13;;;5.66;100.00
7824;BME280;3957;48.61947800;9.05303100;2023-02-20T00:17:26;97161.31;;;5.55;100.00
7824;BME280;3957;48.61947800;9.05303100;2023-02-20T00:18:27;97160.75;;;5.61;100.00
7824;BME280;3957;48.61947800;9.05303100;2023-02-20T00:19:27;97160.28;;;5.66;100.00
7824;BME280;3957;48.61947800;9.05303100;2023-02-20T00:20:28;97163.78;;;5.66;100.00
7824;BME280;3957;48.61947800;9.05303100;2023-02-20T00:21:29;97157.34;;;5.69;100.00
7824;BME280;3957;48.61947800;9.05303100;2023-02-20T00:22:29;97152.72;;;5.71;100.00
7824;BME280;3957;48.61947800;9.05303100;2023-02-20T00:23:33;97152.72;;;5.71;100.00
7824;BME280;3957;48.61947800;9.05303100;2023-02-20T00:24:34;97143.88;;;5.80;100.00
7824;BME280;3957;48.61947800;9.05303100;2023-02-20T00:25:34;97148.19;;;5.81;100.00
7824;BME280;3957;48.61947800;9.05303100;2023-02-20T00:26:35;97150.19;;;5.79;100.00
7824;BME280;3957;48.61947800;9.05303100;2023-02-20T00:27:35;97143.03;;;5.79;100.00
7824;BME280;3957;48.61947800;9.05303100;2023-02-20T00:28:39;97147.41;;;5.71;100.00
7824;BME280;3957;48.61947800;9.05303100;2023-02-20T00:29:40;97136.66;;;5.72;100.00
7824;BME280;3957;48.61947800;9.05303100;2023-02-20T00:30:43;97140.78;;;5.57;100.00
7824;BME280;3957;48.61947800;9.05303100;2023-02-20T00:31:54;97134.03;;;5.62;100.00
7824;BME280;3957;48.61947800;9.05303100;2023-02-20T00:32:55;97134.75;;;5.55;100.00
7824;BME280;3957;48.61947800;9.05303100;2023-02-20T00:33:56;97135.16;;;5.60;100.00
7824;BME280;3957;48.61947800;9.05303100;2023-02-20T00:34:56;97129.69;;;5.61;100.00
7824;BME280;3957;48.61947800;9.05303100;2023-02-20T00:35:57;97128.94;;;5.51;100.00
7824;BME280;3957;48.61947800;9.05303100;2023-02-20T00:36:58;97140.22;;;5.53;100.00
7824;BME280;3957;48.61947800;9.05303100;2023-02-20T00:37:58;97136.75;;;5.53;100.00
7824;BME280;3957;48.61947800;9.05303100;2023-02-20T00:38:59;97143.44;;;5.57;100.00
7824;BME280;3957;48.61947800;9.05303100;2023-02-20T00:39:59;97140.97;;;5.45;100.00
7824;BME280;3957;48.61947800;9.05303100;2023-02-20T00:41:02;97137.16;;;5.48;100.00
7824;BME280;3957;48.61947800;9.05303100;2023-02-20T00:42:02;97143.94;;;5.60;100.00
7824;BME280;3957;48.61947800;9.05303100;2023-02-20T00:43:03;97142.25;;;5.69;100.00
7824;BME280;3957;48.61947800;9.05303100;2023-02-20T00:44:04;97153.84;;;5.68;100.00
7824;BME280;3957;48.61947800;9.05303100;2023-02-20T00:45:05;97149.78;;;5.74;100.00
7824;BME280;3957;48.61947800;9.05303100;2023-02-20T00:46:06;97148.41;;;5.70;100.00
7824;BME280;3957;48.61947800;9.05303100;2023-02-20T00:47:06;97150.31;;;5.77;100.00
7824;BME280;3957;48.61947800;9.05303100;2023-02-20T00:48:06;97146.41;;;5.82;100.00
7824;BME280;3957;48.61947800;9.05303100;2023-02-20T00:49:07;97158.97;;;5.79;100.00
7824;BME280;3957;48.61947800;9.05303100;2023-02-20T00:50:19;97151.84;;;5.80;100.00
7824;BME280;3957;48.61947800;9.05303100;2023-02-20T00:51:20;97157.44;;;5.77;100.00
7824;BME280;3957;48.61947800;9.05303100;2023-02-20T00:52:20;97161.63;;;5.79;100.00
7824;BME280;3957;48.61947800;9.05303100;2023-02-20T00:53:20;97163.88;;;5.74;100.00
7824;BME280;3957;48.61947800;9.05303100;2023-02-20T00:54:21;97166.84;;;5.71;100.00
7824;BME280;3957;48.61947800;9.05303100;2023-02-20T00:55:21;97165.75;;;5.64;100.00
7824;BME280;3957;48.61947800;9.05303100;2023-02-20T00:56:22;97176.06;;;5.67;100.00
7824;BME280;3957;48.61947800;9.05303100;2023-02-20T00:57:22;97170.25;;;5.64;100.00
7824;BME280;3957;48.61947800;9.05303100;2023-02-20T00:58:22;97168.97;;;5.68;100.00
7824;BME280;3957;48.61947800;9.05303100;2023-02-20T00:59:23;97169.63;;;5.70;100.00
7824;BME280;3957;48.61947800;9.05303100;2023-02-20T01:00:29;97174.75;;;5.81;100.00
7824;BME280;3957;48.61947800;9.05303100;2023-02-20T01:01:29;97169.50;;;5.71;100.00
7824;BME280;3957;48.61947800;9.05303100;2023-02-20T01:02:30;97177.84;;;5.76;100.00
7824;BME280;3957;48.61947800;9.05303100;2023-02-20T01:03:30;97175.34;;;5.75;100.00
7824;BME280;3957;48.61947800;9.05303100;2023-02-20T01:04:30;97174.66;;;5.73;100.00
7824;BME280;3957;48.61947800;9.05303100;2023-02-20T01:05:31;97174.81;;;5.71;100.00
7824;BME280;3957;48.61947800;9.05303100;2023-02-20T01:06:32;97172.03;;;5.63;100.00
7824;BME280;3957;48.61947800;9.05303100;2023-02-20T01:07:32;97174.94;;;5.70;100.00
7824;BME280;3957;48.61947800;9.05303100;2023-02-20T01:08:32;97166.44;;;5.66;100.00
7824;BME280;3957;48.61947800;9.05303100;2023-02-20T01:09:33;97171.13;;;5.82;100.00
7824;BME280;3957;48.61947800;9.05303100;2023-02-20T01:10:34;97175.34;;;5.75;100.00
7824;BME280;3957;48.61947800;9.05303100;2023-02-20T01:11:34;97168.97;;;5.68;100.00
7824;BME280;3957;48.61947800;9.05303100;2023-02-20T01:12:34;97177.72;;;5.78;100.00
7824;BME280;3957;48.61947800;9.05303100;2023-02-20T01:13:35;97174.81;;;5.71;100.00
7824;BME280;3957;48.61947800;9.05303100;2023-02-20T01:14:36;97166.00;;;5.71;100.00
7824;BME280;3957;48.61947800;9.05303100;2023-02-20T01:15:37;97164.19;;;5.71;100.00
7824;BME280;3957;48.61947800;9.05303100;2023-02-20T01:16:43;97167.38;;;5.75;100.00
7824;BME280;3957;48.61947800;9.05303100;2023-02-20T01:17:45;97167.59;;;5.64;100.00
7824;BME280;3957;48.61947800;9.05303100;2023-02-20T01:18:48;97163.41;;;5.61;100.00
7824;BME280;3957;48.61947800;9.05303100;2023-02-20T01:19:49;97162.28;;;5.64;100.00
7824;BME280;3957;48.61947800;9.05303100;2023-02-20T01:20:53;97162.28;;;5.64;100.00
7824;BME280;3957;48.61947800;9.05303100;2023-02-20T01:21:55;97159.88;;;5.60;100.00
7824;BME280;3957;48.61947800;9.05303100;2023-02-20T01:22:56;97165.03;;;5.72;100.00
7824;BME280;3957;48.61947800;9.05303100;2023-02-20T01:23:57;97168.56;;;5.62;100.00
7824;BME280;3957;48.61947800;9.05303100;2023-02-20T01:24:57;97166.41;;;5.76;100.00
7824;BME280;3957;48.61947800;9.05303100;2023-02-20T01:25:57;97161.38;;;5.73;100.00
7824;BME280;3957;48.61947800;9.05303100;2023-02-20T01:26:58;97169.06;;;5.76;100.00
7824;BME280;3957;48.61947800;9.05303100;2023-02-20T01:27:58;97168.78;;;5.79;100.00
7824;BME280;3957;48.61947800;9.05303100;2023-02-20T01:28:58;97159.81;;;5.80;100.00
7824;BME280;3957;48.61947800;9.05303100;2023-02-20T01:29:59;97168.06;;;5.77;100.00
7824;BME280;3957;48.61947800;9.05303100;2023-02-20T01:30:59;97160.53;;;5.72;100.00
7824;BME280;3957;48.61947800;9.05303100;2023-02-20T01:32:00;97158.75;;;5.63;100.00
7824;BME280;3957;48.61947800;9.05303100;2023-02-20T01:33:00;97154.00;;;5.67;100.00
7824;BME280;3957;48.61947800;9.05303100;2023-02-20T01:34:01;97157.00;;;5.54;100.00
7824;BME280;3957;48.61947800;9.05303100;2023-02-20T01:35:02;97152.53;;;5.54;100.00
7824;BME280;3957;48.61947800;9.05303100;2023-02-20T01:36:02;97150.94;;;5.61;100.00
7824;BME280;3957;48.61947800;9.05303100;2023-02-20T01:37:03;97151.06;;;5.70;100.00
7824;BME280;3957;48.61947800;9.05303100;2023-02-20T01:38:03;97148.50;;;5.78;100.00
7824;BME280;3957;48.61947800;9.05303100;2023-02-20T01:39:05;97147.00;;;5.66;100.00
7824;BME280;3957;48.61947800;9.05303100;2023-02-20T01:40:06;97152.94;;;5.59;100.00
7824;BME280;3957;48.61947800;9.05303100;2023-02-20T01:41:08;97150.13;;;5.61;100.00
7824;BME280;3957;48.61947800;9.05303100;2023-02-20T01:42:13;97144.84;;;5.51;100.00
7824;BME280;3957;48.61947800;9.05303100;2023-02-20T01:43:16;97140.44;;;5.70;100.00
7824;BME280;3957;48.61947800;9.05303100;2023-02-20T01:44:20;97143.69;;;5.64;100.00
7824;BME280;3957;48.61947800;9.05303100;2023-02-20T01:47:27;97143.91;;;5.70;100.00
7824;BME280;3957;48.61947800;9.05303100;2023-02-20T01:48:27;97142.50;;;5.76;100.00
7824;BME280;3957;48.61947800;9.05303100;2023-02-20T01:49:33;97134.88;;;5.63;100.00
7824;BME280;3957;48.61947800;9.05303100;2023-02-20T01:50:40;97133.97;;;5.44;100.00
7824;BME280;3957;48.61947800;9.05303100;2023-02-20T01:51:43;97134.22;;;5.51;100.00
7824;BME280;3957;48.61947800;9.05303100;2023-02-20T01:52:50;97140.00;;;5.37;100.00
7824;BME280;3957;48.61947800;9.05303100;2023-02-20T01:53:52;97132.75;;;5.39;100.00
7824;BME280;3957;48.61947800;9.05303100;2023-02-20T01:56:02;97129.38;;;5.37;100.00
7824;BME280;3957;48.61947800;9.05303100;2023-02-20T01:57:08;97135.13;;;5.32;100.00
7824;BME280;3957;48.61947800;9.05303100;2023-02-20T01:58:14;97125.09;;;5.26;100.00
7824;BME280;3957;48.61947800;9.05303100;2023-02-20T01:59:15;97123.72;;;5.12;100.00
7824;BME280;3957;48.61947800;9.05303100;2023-02-20T02:00:19;97132.59;;;5.40;100.00
7824;BME280;3957;48.61947800;9.05303100;2023-02-20T02:01:20;97128.41;;;5.38;100.00
7824;BME280;3957;48.61947800;9.05303100;2023-02-20T02:02:20;97128.16;;;5.31;100.00
7824;BME280;3957;48.61947800;9.05303100;2023-02-20T02:03:34;97134.13;;;5.43;100.00
7824;BME280;3957;48.61947800;9.05303100;2023-02-20T02:04:37;97126.91;;;5.25;100.00
7824;BME280;3957;48.61947800;9.05303100;2023-02-20T02:05:41;97121.91;;;5.22;100.00
7824;BME280;3957;48.61947800;9.05303100;2023-02-20T02:06:47;97121.34;;;5.19;100.00
7824;BME280;3957;48.61947800;9.05303100;2023-02-20T02:07:49;97116.63;;;5.13;100.00
7824;BME280;3957;48.61947800;9.05303100;2023-02-20T02:08:50;97118.16;;;5.05;100.00
7824;BME280;3957;48.61947800;9.05303100;2023-02-20T02:10:01;97122.91;;;5.11;100.00
7824;BME280;3957;48.61947800;9.05303100;2023-02-20T02:11:06;97123.84;;;5.20;100.00
7824;BME280;3957;48.61947800;9.05303100;2023-02-20T02:12:08;97124.28;;;5.16;100.00
7824;BME280;3957;48.61947800;9.05303100;2023-02-20T02:13:10;97124.28;;;5.16;100.00
7824;BME280;3957;48.61947800;9.05303100;2023-02-20T02:14:13;97122.06;;;5.21;100.00
7824;BME280;3957;48.61947800;9.05303100;2023-02-20T02:15:16;97127.34;;;5.21;100.00
7824;BME280;3957;48.61947800;9.05303100;2023-02-20T02:17:42;97116.66;;;5.03;100.00
7824;BME280;3957;48.61947800;9.05303100;2023-02-20T02:19:17;97118.19;;;4.96;100.00
7824;BME280;3957;48.61947800;9.05303100;2023-02-20T02:25:18;97110.53;;;4.83;100.00
7824;BME280;3957;48.61947800;9.05303100;2023-02-20T02:31:50;97097.00;;;4.76;100.00
7824;BME280;3957;48.61947800;9.05303100;2023-02-20T02:32:59;97098.69;;;4.77;100.00
7824;BME280;3957;48.61947800;9.05303100;2023-02-20T02:38:50;97096.72;;;4.69;100.00
7824;BME280;3957;48.61947800;9.05303100;2023-02-20T02:41:21;97098.84;;;4.66;100.00
7824;BME280;3957;48.61947800;9.05303100;2023-02-20T02:44:30;97095.09;;;4.68;100.00
7824;BME280;3957;48.61947800;9.05303100;2023-02-20T02:45:47;97099.00;;;4.64;100.00
7824;BME280;3957;48.61947800;9.05303100;2023-02-20T02:48:10;97098.25;;;4.82;100.00
7824;BME280;3957;48.61947800;9.05303100;2023-02-20T02:49:24;97096.88;;;4.77;100.00
7824;BME280;3957;48.61947800;9.05303100;2023-02-20T02:50:32;97098.81;;;4.85;100.00
7824;BME280;3957;48.61947800;9.05303100;2023-02-20T02:51:38;97101.28;;;4.97;100.00
7824;BME280;3957;48.61947800;9.05303100;2023-02-20T02:52:40;97094.44;;;5.04;100.00
7824;BME280;3957;48.61947800;9.05303100;2023-02-20T02:54:12;97098.53;;;4.88;100.00
7824;BME280;3957;48.61947800;9.05303100;2023-02-20T02:55:17;97098.66;;;4.97;100.00
7824;BME280;3957;48.61947800;9.05303100;2023-02-20T02:56:18;97098.22;;;4.91;100.00
7824;BME280;3957;48.61947800;9.05303100;2023-02-20T02:57:25;97096.03;;;4.87;100.00
7824;BME280;3957;48.61947800;9.05303100;2023-02-20T02:58:25;97097.00;;;4.86;100.00
7824;BME280;3957;48.61947800;9.05303100;2023-02-20T02:59:31;97089.19;;;4.74;100.00
7824;BME280;3957;48.61947800;9.05303100;2023-02-20T03:00:37;97094.91;;;4.80;100.00
7824;BME280;3957;48.61947800;9.05303100;2023-02-20T03:01:42;97099.50;;;4.77;100.00
7824;BME280;3957;48.61947800;9.05303100;2023-02-20T03:04:11;97092.41;;;4.78;100.00
7824;BME280;3957;48.61947800;9.05303100;2023-02-20T03:05:17;97098.09;;;4.83;100.00
7824;BME280;3957;48.61947800;9.05303100;2023-02-20T03:06:31;97104.13;;;4.85;100.00
7824;BME280;3957;48.61947800;9.05303100;2023-02-20T03:07:35;97095.56;;;4.91;100.00
7824;BME280;3957;48.61947800;9.05303100;2023-02-20T03:08:42;97094.19;;;4.87;100.00
7824;BME280;3957;48.61947800;9.05303100;2023-02-20T03:09:53;97084.19;;;4.71;100.00
7824;BME280;3957;48.61947800;9.05303100;2023-02-20T03:11:06;97093.81;;;4.82;100.00
7824;BME280;3957;48.61947800;9.05303100;2023-02-20T03:12:12;97097.00;;;4.86;100.00
7824;BME280;3957;48.61947800;9.05303100;2023-02-20T03:13:14;97094.94;;;4.70;100.00
7824;BME280;3957;48.61947800;9.05303100;2023-02-20T03:14:24;97096.06;;;4.67;100.00
7824;BME280;3957;48.61947800;9.05303100;2023-02-20T03:15:52;97093.13;;;4.60;100.00
7824;BME280;3957;48.61947800;9.05303100;2023-02-20T03:18:16;97097.47;;;4.52;100.00
7824;BME280;3957;48.61947800;9.05303100;2023-02-20T03:19:25;97097.06;;;4.47;100.00
7824;BME280;3957;48.61947800;9.05303100;2023-02-20T03:20:27;97102.63;;;4.53;100.00
7824;BME280;3957;48.61947800;9.05303100;2023-02-20T03:21:29;97100.28;;;4.50;100.00
7824;BME280;3957;48.61947800;9.05303100;2023-02-20T03:22:35;97101.78;;;4.72;100.00
7824;BME280;3957;48.61947800;9.05303100;2023-02-20T03:23:39;97102.59;;;4.73;100.00
7824;BME280;3957;48.61947800;9.05303100;2023-02-20T03:24:43;97095.09;;;4.68;100.00
7824;BME280;3957;48.61947800;9.05303100;2023-02-20T03:26:22;97100.25;;;4.70;100.00
7824;BME280;3957;48.61947800;9.05303100;2023-02-20T03:28:43;97100.38;;;4.68;100.00
7824;BME280;3957;48.61947800;9.05303100;2023-02-20T03:29:46;97092.84;;;4.64;100.00
7824;BME280;3957;48.61947800;9.05303100;2023-02-20T03:30:53;97100.09;;;4.71;100.00
7824;BME280;3957;48.61947800;9.05303100;2023-02-20T03:32:01;97091.19;;;4.72;100.00
7824;BME280;3957;48.61947800;9.05303100;2023-02-20T03:33:33;97094.63;;;4.83;100.00
7824;BME280;3957;48.61947800;9.05303100;2023-02-20T03:34:55;97085.44;;;4.77;100.00
7824;BME280;3957;48.61947800;9.05303100;2023-02-20T03:36:21;97094.78;;;4.71;100.00
7824;BME280;3957;48.61947800;9.05303100;2023-02-20T03:37:43;97096.47;;;4.63;100.00
7824;BME280;3957;48.61947800;9.05303100;2023-02-20T03:39:09;97101.91;;;4.71;100.00
7824;BME280;3957;48.61947800;9.05303100;2023-02-20T03:40:30;97099.53;;;4.68;100.00
7824;BME280;3957;48.61947800;9.05303100;2023-02-20T03:41:52;97092.56;;;4.76;100.00
7824;BME280;3957;48.61947800;9.05303100;2023-02-20T03:43:19;97104.44;;;4.72;100.00
7824;BME280;3957;48.61947800;9.05303100;2023-02-20T03:44:31;97094.66;;;4.63;100.00
7824;BME280;3957;48.61947800;9.05303100;2023-02-20T03:45:35;97097.59;;;4.60;100.00
7824;BME280;3957;48.61947800;9.05303100;2023-02-20T03:46:38;97093.97;;;4.51;100.00
7824;BME280;3957;48.61947800;9.05303100;2023-02-20T03:47:43;97091.31;;;4.51;100.00
7824;BME280;3957;48.61947800;9.05303100;2023-02-20T03:48:52;97091.19;;;4.43;100.00
7824;BME280;3957;48.61947800;9.05303100;2023-02-20T03:49:54;97098.16;;;4.34;100.00
7824;BME280;3957;48.61947800;9.05303100;2023-02-20T03:50:56;97100.25;;;4.40;100.00
7824;BME280;3957;48.61947800;9.05303100;2023-02-20T03:51:58;97091.91;;;4.35;100.00
7824;BME280;3957;48.61947800;9.05303100;2023-02-20T03:53:14;97106.56;;;4.30;100.00
7824;BME280;3957;48.61947800;9.05303100;2023-02-20T03:54:16;97104.03;;;4.28;100.00
7824;BME280;3957;48.61947800;9.05303100;2023-02-20T03:55:20;97100.53;;;4.18;100.00
7824;BME280;3957;48.61947800;9.05303100;2023-02-20T03:56:28;97103.19;;;4.18;100.00
7824;BME280;3957;48.61947800;9.05303100;2023-02-20T03:57:37;97090.38;;;4.13;100.00
7824;BME280;3957;48.61947800;9.05303100;2023-02-20T03:58:43;97096.78;;;4.11;100.00
7824;BME280;3957;48.61947800;9.05303100;2023-02-20T03:59:50;97092.28;;;4.01;100.00
7824;BME280;3957;48.61947800;9.05303100;2023-02-20T04:00:55;97089.50;;;3.93;100.00
7824;BME280;3957;48.61947800;9.05303100;2023-02-20T04:02:01;97089.94;;;3.98;100.00
7824;BME280;3957;48.61947800;9.05303100;2023-02-20T04:03:07;97088.81;;;4.01;100.00
7824;BME280;3957;48.61947800;9.05303100;2023-02-20T04:04:19;97095.38;;;3.97;100.00
7824;BME280;3957;48.61947800;9.05303100;2023-02-20T04:05:24;97099.66;;;3.88;100.00
7824;BME280;3957;48.61947800;9.05303100;2023-02-20T04:06:30;97089.34;;;3.95;100.00
7824;BME280;3957;48.61947800;9.05303100;2023-02-20T04:07:54;97089.22;;;4.06;100.00
7824;BME280;3957;48.61947800;9.05303100;2023-02-20T04:09:02;97085.75;;;3.96;100.00
7824;BME280;3957;48.61947800;9.05303100;2023-02-20T04:10:10;97093.97;;;3.92;100.00
7824;BME280;3957;48.61947800;9.05303100;2023-02-20T04:11:36;97092.00;;;4.04;100.00
7824;BME280;3957;48.61947800;9.05303100;2023-02-20T04:12:42;97090.38;;;4.03;100.00
7824;BME280;3957;48.61947800;9.05303100;2023-02-20T04:13:46;97089.66;;;4.01;100.00
7824;BME280;3957;48.61947800;9.05303100;2023-02-20T04:14:48;97090.72;;;3.79;100.00
7824;BME280;3957;48.61947800;9.05303100;2023-02-20T04:15:52;97081.97;;;3.79;100.00
7824;BME280;3957;48.61947800;9.05303100;2023-02-20T04:17:00;97084.63;;;3.88;100.00
7824;BME280;3957;48.61947800;9.05303100;2023-02-20T04:18:18;97090.59;;;3.81;100.00
7824;BME280;3957;48.61947800;9.05303100;2023-02-20T04:19:20;97084.75;;;3.87;100.00
7824;BME280;3957;48.61947800;9.05303100;2023-02-20T04:20:21;97089.19;;;3.86;100.00
7824;BME280;3957;48.61947800;9.05303100;2023-02-20T04:21:36;97078.75;;;3.95;100.00
7824;BME280;3957;48.61947800;9.05303100;2023-02-20T04:22:41;97082.66;;;3.81;100.00
7824;BME280;3957;48.61947800;9.05303100;2023-02-20T04:23:46;97083.22;;;3.84;100.00
7824;BME280;3957;48.61947800;9.05303100;2023-02-20T04:24:54;97087.69;;;3.94;100.00
7824;BME280;3957;48.61947800;9.05303100;2023-02-20T04:26:03;97086.16;;;3.81;100.00
7824;BME280;3957;48.61947800;9.05303100;2023-02-20T04:27:07;97088.75;;;3.71;100.00
7824;BME280;3957;48.61947800;9.05303100;2023-02-20T04:28:15;97080.41;;;3.76;100.00
7824;BME280;3957;48.61947800;9.05303100;2023-02-20T04:29:36;97078.31;;;3.70;100.00
7824;BME280;3957;48.61947800;9.05303100;2023-02-20T04:30:36;97077.78;;;3.76;100.00
7824;BME280;3957;48.61947800;9.05303100;2023-02-20T04:31:37;97073.56;;;3.64;100.00
7824;BME280;3957;48.61947800;9.05303100;2023-02-20T04:32:38;97064.75;;;3.53;100.00
7824;BME280;3957;48.61947800;9.05303100;2023-02-20T04:33:38;97074.00;;;3.69;100.00
7824;BME280;3957;48.61947800;9.05303100;2023-02-20T04:34:45;97076.06;;;3.65;100.00
7824;BME280;3957;48.61947800;9.05303100;2023-02-20T04:35:46;97064.50;;;3.56;100.00
7824;BME280;3957;48.61947800;9.05303100;2023-02-20T04:36:46;97070.34;;;3.60;100.00
7824;BME280;3957;48.61947800;9.05303100;2023-02-20T04:37:47;97063.66;;;3.56;100.00
7824;BME280;3957;48.61947800;9.05303100;2023-02-20T04:38:47;97061.13;;;3.54;100.00
7824;BME280;3957;48.61947800;9.05303100;2023-02-20T04:39:51;97068.56;;;3.61;100.00
7824;BME280;3957;48.61947800;9.05303100;2023-02-20T04:40:52;97064.38;;;3.58;100.00
7824;BME280;3957;48.61947800;9.05303100;2023-02-20T04:41:54;97066.59;;;3.72;100.00
7824;BME280;3957;48.61947800;9.05303100;2023-02-20T04:42:54;97069.53;;;3.60;100.00
7824;BME280;3957;48.61947800;9.05303100;2023-02-20T04:43:55;97058.00;;;3.80;100.00
7824;BME280;3957;48.61947800;9.05303100;2023-02-20T04:45:16;97059.38;;;3.74;100.00
7824;BME280;3957;48.61947800;9.05303100;2023-02-20T04:46:17;97062.25;;;3.62;100.00
7824;BME280;3957;48.61947800;9.05303100;2023-02-20T04:47:18;97066.72;;;3.51;100.00
7824;BME280;3957;48.61947800;9.05303100;2023-02-20T04:48:18;97067.22;;;3.35;100.00
7824;BME280;3957;48.61947800;9.05303100;2023-02-20T04:49:19;97063.88;;;3.33;100.00
7824;BME280;3957;48.61947800;9.05303100;2023-02-20T04:50:28;97058.13;;;3.28;100.00
7824;BME280;3957;48.61947800;9.05303100;2023-02-20T04:51:29;97059.25;;;3.26;100.00
7824;BME280;3957;48.61947800;9.05303100;2023-02-20T04:52:30;97049.69;;;3.34;100.00
7824;BME280;3957;48.61947800;9.05303100;2023-02-20T04:53:30;97056.91;;;3.32;100.00
7824;BME280;3957;48.61947800;9.05303100;2023-02-20T04:54:32;97059.81;;;3.29;100.00
7824;BME280;3957;48.61947800;9.05303100;2023-02-20T04:55:33;97051.59;;;3.22;100.00
7824;BME280;3957;48.61947800;9.05303100;2023-02-20T04:56:40;97061.91;;;3.35;100.00
7824;BME280;3957;48.61947800;9.05303100;2023-02-20T04:57:43;97062.31;;;3.31;100.00
7824;BME280;3957;48.61947800;9.05303100;2023-02-20T04:58:46;97070.25;;;3.31;100.00
7824;BME280;3957;48.61947800;9.05303100;2023-02-20T04:59:52;97069.41;;;3.20;100.00
7824;BME280;3957;48.61947800;9.05303100;2023-02-20T05:00:53;97070.69;;;3.26;100.00
7824;BME280;3957;48.61947800;9.05303100;2023-02-20T05:01:53;97067.63;;;3.31;100.00
7824;BME280;3957;48.61947800;9.05303100;2023-02-20T05:02:57;97068.88;;;3.36;100.00
7824;BME280;3957;48.61947800;9.05303100;2023-02-20T05:03:57;97069.69;;;3.27;100.00
7824;BME280;3957;48.61947800;9.05303100;2023-02-20T05:04:58;97064.13;;;3.20;100.00
7824;BME280;3957;48.61947800;9.05303100;2023-02-20T05:05:58;97071.38;;;3.28;100.00
7824;BME280;3957;48.61947800;9.05303100;2023-02-20T05:06:58;97068.41;;;3.21;100.00
7824;BME280;3957;48.61947800;9.05303100;2023-02-20T05:08:01;97070.25;;;3.31;100.00
7824;BME280;3957;48.61947800;9.05303100;2023-02-20T05:09:03;97069.97;;;3.24;100.00
7824;BME280;3957;48.61947800;9.05303100;2023-02-20T05:10:04;97069.78;;;3.16;100.00
7824;BME280;3957;48.61947800;9.05303100;2023-02-20T05:11:05;97066.19;;;3.17;100.00
7824;BME280;3957;48.61947800;9.05303100;2023-02-20T05:12:05;97068.66;;;3.09;100.00
7824;BME280;3957;48.61947800;9.05303100;2023-02-20T05:13:06;97062.53;;;3.08;100.00
7824;BME280;3957;48.61947800;9.05303100;2023-02-20T05:14:06;97062.91;;;3.03;100.00
7824;BME280;3957;48.61947800;9.05303100;2023-02-20T05:15:07;97068.91;;;3.05;100.00
7824;BME280;3957;48.61947800;9.05303100;2023-02-20T05:16:07;97071.16;;;3.10;100.00
7824;BME280;3957;48.61947800;9.05303100;2023-02-20T05:17:07;97077.41;;;3.09;100.00
7824;BME280;3957;48.61947800;9.05303100;2023-02-20T05:18:08;97070.88;;;3.13;100.00
7824;BME280;3957;48.61947800;9.05303100;2023-02-20T05:19:08;97080.69;;;3.22;100.00
7824;BME280;3957;48.61947800;9.05303100;2023-02-20T05:20:10;97075.56;;;3.31;100.00
7824;BME280;3957;48.61947800;9.05303100;2023-02-20T05:21:14;97080.06;;;3.40;100.00
7824;BME280;3957;48.61947800;9.05303100;2023-02-20T05:22:33;97073.53;;;3.44;100.00
7824;BME280;3957;48.61947800;9.05303100;2023-02-20T05:23:33;97071.84;;;3.43;100.00
7824;BME280;3957;48.61947800;9.05303100;2023-02-20T05:24:33;97073.59;;;3.33;100.00
7824;BME280;3957;48.61947800;9.05303100;2023-02-20T05:25:34;97077.38;;;3.30;100.00
7824;BME280;3957;48.61947800;9.05303100;2023-02-20T05:26:34;97073.50;;;3.34;100.00
7824;BME280;3957;48.61947800;9.05303100;2023-02-20T05:27:34;97077.09;;;3.33;100.00
7824;BME280;3957;48.61947800;9.05303100;2023-02-20T05:28:35;97073.47;;;3.25;100.00
7824;BME280;3957;48.61947800;9.05303100;2023-02-20T05:29:43;97066.63;;;3.22;100.00
7824;BME280;3957;48.61947800;9.05303100;2023-02-20T05:30:43;97070.13;;;3.32;100.00
7824;BME280;3957;48.61947800;9.05303100;2023-02-20T05:31:44;97072.66;;;3.44;100.00
7824;BME280;3957;48.61947800;9.05303100;2023-02-20T05:32:44;97077.94;;;3.34;100.00
7824;BME280;3957;48.61947800;9.05303100;2023-02-20T05:33:45;97075.16;;;3.45;100.00
7824;BME280;3957;48.61947800;9.05303100;2023-02-20T05:34:45;97069.88;;;3.45;100.00
7824;BME280;3957;48.61947800;9.05303100;2023-02-20T05:35:46;97061.53;;;3.40;100.00